sensor_id;sensor_type;location;lat;lon;timestamp;temperature;humidity
54576;DHT22;40472;53.486;14.542;2023-08-08T00:00:54;12.50;99.90
54576;DHT22;40472;53.486;14.542;2023-08-08T00:03:20;12.40;99.90
54576;DHT22;40472;53.486;14.542;2023-08-08T00:05:45;12.40;99.90
54576;DHT22;40472;53.486;14.542;2023-08-08T00:08:24;12.40;99.90
54576;DHT22;40472;53.486;14.542;2023-08-08T00:10:50;12.40;99.90
54576;DHT22;40472;53.486;14.542;2023-08-08T00:13:15;12.40;99.90
54576;DHT22;40472;53.486;14.542;2023-08-08T00:15:41;12.40;99.90
54576;DHT22;40472;53.486;14.542;2023-08-08T00:18:07;12.40;99.90
54576;DHT22;40472;53.486;14.542;2023-08-08T00:20:32;12.30;99.90
54576;DHT22;40472;53.486;14.542;2023-08-08T00:22:59;12.30;99.90
54576;DHT22;40472;53.486;14.542;2023-08-08T00:25:25;12.30;99.90
54576;DHT22;40472;53.486;14.542;2023-08-08T00:27:50;12.30;99.90
54576;DHT22;40472;53.486;14.542;2023-08-08T00:30:16;12.40;99.90
54576;DHT22;40472;53.486;14.542;2023-08-08T00:32:42;12.40;99.90
54576;DHT22;40472;53.486;14.542;2023-08-08T00:35:08;12.50;99.90
54576;DHT22;40472;53.486;14.542;2023-08-08T00:37:34;12.40;99.90
54576;DHT22;40472;53.486;14.542;2023-08-08T00:40:00;12.40;99.90
54576;DHT22;40472;53.486;14.542;2023-08-08T00:42:26;12.40;99.90
54576;DHT22;40472;53.486;14.542;2023-08-08T00:44:51;12.50;99.90
54576;DHT22;40472;53.486;14.542;2023-08-08T00:47:17;12.50;99.90
54576;DHT22;40472;53.486;14.542;2023-08-08T00:49:45;12.50;99.90
54576;DHT22;40472;53.486;14.542;2023-08-08T00:52:14;12.50;99.90
54576;DHT22;40472;53.486;14.542;2023-08-08T00:54:40;12.50;99.90
54576;DHT22;40472;53.486;14.542;2023-08-08T00:57:08;12.50;99.90
54576;DHT22;40472;53.486;14.542;2023-08-08T00:59:39;12.50;99.90
54576;DHT22;40472;53.486;14.542;2023-08-08T01:02:04;12.60;99.90
54576;DHT22;40472;53.486;14.542;2023-08-08T01:04:30;12.70;99.90
54576;DHT22;40472;53.486;14.542;2023-08-08T01:09:41;12.70;99.90
54576;DHT22;40472;53.486;14.542;2023-08-08T01:12:11;12.60;99.90
54576;DHT22;40472;53.486;14.542;2023-08-08T01:14:38;12.70;99.90
54576;DHT22;40472;53.486;14.542;2023-08-08T01:17:06;12.70;99.90
54576;DHT22;40472;53.486;14.542;2023-08-08T01:19:32;12.70;99.90
54576;DHT22;40472;53.486;14.542;2023-08-08T01:22:06;12.80;99.90
54576;DHT22;40472;53.486;14.542;2023-08-08T01:24:33;12.70;99.90
54576;DHT22;40472;53.486;14.542;2023-08-08T01:27:02;12.70;99.90
54576;DHT22;40472;53.486;14.542;2023-08-08T01:29:29;12.70;99.90
54576;DHT22;40472;53.486;14.542;2023-08-08T01:31:54;12.70;99.90
54576;DHT22;40472;53.486;14.542;2023-08-08T01:34:21;12.70;99.90
54576;DHT22;40472;53.486;14.542;2023-08-08T01:37:09;12.70;99.90
54576;DHT22;40472;53.486;14.542;2023-08-08T01:39:38;12.70;99.90
54576;DHT22;40472;53.486;14.542;2023-08-08T01:42:06;12.60;99.90
54576;DHT22;40472;53.486;14.542;2023-08-08T01:44:32;12.60;99.90
54576;DHT22;40472;53.486;14.542;2023-08-08T01:47:00;12.50;99.90
54576;DHT22;40472;53.486;14.542;2023-08-08T01:49:25;12.50;99.90
54576;DHT22;40472;53.486;14.542;2023-08-08T01:51:51;12.40;99.90
54576;DHT22;40472;53.486;14.542;2023-08-08T01:54:18;12.40;99.90
54576;DHT22;40472;53.486;14.542;2023-08-08T01:56:44;12.50;99.90
54576;DHT22;40472;53.486;14.542;2023-08-08T01:59:10;12.40;99.90
54576;DHT22;40472;53.486;14.542;2023-08-08T02:01:35;12.40;99.90
54576;DHT22;40472;53.486;14.542;2023-08-08T02:04:01;12.40;99.90
54576;DHT22;40472;53.486;14.542;2023-08-08T02:06:26;12.40;99.90
54576;DHT22;40472;53.486;14.542;2023-08-08T02:08:52;12.40;99.90
54576;DHT22;40472;53.486;14.542;2023-08-08T02:11:18;12.50;99.90
54576;DHT22;40472;53.486;14.542;2023-08-08T02:13:43;12.40;99.90
54576;DHT22;40472;53.486;14.542;2023-08-08T02:16:09;12.40;99.90
54576;DHT22;40472;53.486;14.542;2023-08-08T02:18:34;12.40;99.90
54576;DHT22;40472;53.486;14.542;2023-08-08T02:21:06;12.40;99.90
54576;DHT22;40472;53.486;14.542;2023-08-08T02:23:31;12.30;99.90
54576;DHT22;40472;53.486;14.542;2023-08-08T02:25:57;12.30;99.90
54576;DHT22;40472;53.486;14.542;2023-08-08T02:28:22;12.30;99.90
54576;DHT22;40472;53.486;14.542;2023-08-08T02:30:48;12.40;99.90
54576;DHT22;40472;53.486;14.542;2023-08-08T02:33:14;12.40;99.90
54576;DHT22;40472;53.486;14.542;2023-08-08T02:35:39;12.40;99.90
54576;DHT22;40472;53.486;14.542;2023-08-08T02:38:05;12.40;99.90
54576;DHT22;40472;53.486;14.542;2023-08-08T02:40:31;12.40;99.90
54576;DHT22;40472;53.486;14.542;2023-08-08T02:42:57;12.40;99.90
54576;DHT22;40472;53.486;14.542;2023-08-08T02:45:23;12.40;99.90
54576;DHT22;40472;53.486;14.542;2023-08-08T02:47:48;12.40;99.90
54576;DHT22;40472;53.486;14.542;2023-08-08T02:50:14;12.40;99.90
54576;DHT22;40472;53.486;14.542;2023-08-08T02:52:40;12.40;99.90
54576;DHT22;40472;53.486;14.542;2023-08-08T02:55:06;12.50;99.90
54576;DHT22;40472;53.486;14.542;2023-08-08T02:57:32;12.50;99.90
54576;DHT22;40472;53.486;14.542;2023-08-08T02:59:58;12.50;99.90
54576;DHT22;40472;53.486;14.542;2023-08-08T03:02:23;12.60;99.90
54576;DHT22;40472;53.486;14.542;2023-08-08T03:04:49;12.60;99.90
54576;DHT22;40472;53.486;14.542;2023-08-08T03:07:15;12.60;99.90
54576;DHT22;40472;53.486;14.542;2023-08-08T03:09:41;12.60;99.90
54576;DHT22;40472;53.486;14.542;2023-08-08T03:12:07;12.60;99.90
54576;DHT22;40472;53.486;14.542;2023-08-08T03:14:32;12.50;99.90
54576;DHT22;40472;53.486;14.542;2023-08-08T03:16:59;12.60;99.90
54576;DHT22;40472;53.486;14.542;2023-08-08T03:19:25;12.60;99.90
54576;DHT22;40472;53.486;14.542;2023-08-08T03:21:50;12.60;99.90
54576;DHT22;40472;53.486;14.542;2023-08-08T03:24:16;12.70;99.90
54576;DHT22;40472;53.486;14.542;2023-08-08T03:26:41;12.60;99.90
54576;DHT22;40472;53.486;14.542;2023-08-08T03:29:07;12.60;99.90
54576;DHT22;40472;53.486;14.542;2023-08-08T03:31:36;12.60;99.90
54576;DHT22;40472;53.486;14.542;2023-08-08T03:34:01;12.50;99.90
54576;DHT22;40472;53.486;14.542;2023-08-08T03:36:27;12.50;99.90
54576;DHT22;40472;53.486;14.542;2023-08-08T03:38:53;12.50;99.90
54576;DHT22;40472;53.486;14.542;2023-08-08T03:41:18;12.50;99.90
54576;DHT22;40472;53.486;14.542;2023-08-08T03:43:45;12.60;99.90
54576;DHT22;40472;53.486;14.542;2023-08-08T03:46:11;12.60;99.90
54576;DHT22;40472;53.486;14.542;2023-08-08T03:48:37;12.60;99.90
54576;DHT22;40472;53.486;14.542;2023-08-08T03:51:03;12.50;99.90
54576;DHT22;40472;53.486;14.542;2023-08-08T03:53:29;12.50;99.90
54576;DHT22;40472;53.486;14.542;2023-08-08T03:55:54;12.50;99.90
54576;DHT22;40472;53.486;14.542;2023-08-08T03:58:20;12.50;99.90
54576;DHT22;40472;53.486;14.542;2023-08-08T04:00:46;12.50;99.90
54576;DHT22;40472;53.486;14.542;2023-08-08T04:03:16;12.50;99.90
54576;DHT22;40472;53.486;14.542;2023-08-08T04:05:45;12.50;99.90
54576;DHT22;40472;53.486;14.542;2023-08-08T04:08:12;12.50;99.90
54576;DHT22;40472;53.486;14.542;2023-08-08T04:10:38;12.50;99.90
54576;DHT22;40472;53.486;14.542;2023-08-08T04:13:04;12.50;99.90
54576;DHT22;40472;53.486;14.542;2023-08-08T04:15:29;12.50;99.90
54576;DHT22;40472;53.486;14.542;2023-08-08T04:17:55;12.50;99.90
54576;DHT22;40472;53.486;14.542;2023-08-08T04:20:20;12.50;99.90
54576;DHT22;40472;53.486;14.542;2023-08-08T04:22:46;12.40;99.90
54576;DHT22;40472;53.486;14.542;2023-08-08T04:25:12;12.40;99.90
54576;DHT22;40472;53.486;14.542;2023-08-08T04:27:37;12.40;99.90
54576;DHT22;40472;53.486;14.542;2023-08-08T04:30:03;12.40;99.90
54576;DHT22;40472;53.486;14.542;2023-08-08T04:32:29;12.30;99.90
54576;DHT22;40472;53.486;14.542;2023-08-08T04:34:55;12.30;99.90
54576;DHT22;40472;53.486;14.542;2023-08-08T04:37:21;12.40;99.90
54576;DHT22;40472;53.486;14.542;2023-08-08T04:39:46;12.40;99.90
54576;DHT22;40472;53.486;14.542;2023-08-08T04:42:12;12.40;99.90
54576;DHT22;40472;53.486;14.542;2023-08-08T04:44:38;12.40;99.90
54576;DHT22;40472;53.486;14.542;2023-08-08T04:47:04;12.40;99.90
54576;DHT22;40472;53.486;14.542;2023-08-08T04:49:29;12.50;99.90
54576;DHT22;40472;53.486;14.542;2023-08-08T04:51:55;12.50;99.90
54576;DHT22;40472;53.486;14.542;2023-08-08T04:54:21;12.60;99.90
54576;DHT22;40472;53.486;14.542;2023-08-08T04:56:46;12.60;99.90
54576;DHT22;40472;53.486;14.542;2023-08-08T04:59:12;12.60;99.90
54576;DHT22;40472;53.486;14.542;2023-08-08T05:01:37;12.60;99.90
54576;DHT22;40472;53.486;14.542;2023-08-08T05:04:03;12.70;99.90
54576;DHT22;40472;53.486;14.542;2023-08-08T05:06:29;12.70;99.90
54576;DHT22;40472;53.486;14.542;2023-08-08T05:08:54;12.70;99.90
54576;DHT22;40472;53.486;14.542;2023-08-08T05:11:22;12.70;99.90
54576;DHT22;40472;53.486;14.542;2023-08-08T05:13:48;12.80;99.90
54576;DHT22;40472;53.486;14.542;2023-08-08T05:16:14;12.80;99.90
54576;DHT22;40472;53.486;14.542;2023-08-08T05:18:39;12.80;99.90
54576;DHT22;40472;53.486;14.542;2023-08-08T05:21:06;13.00;99.90
54576;DHT22;40472;53.486;14.542;2023-08-08T05:23:32;13.20;99.90
54576;DHT22;40472;53.486;14.542;2023-08-08T05:25:58;13.30;99.90
54576;DHT22;40472;53.486;14.542;2023-08-08T05:28:23;13.30;99.90
54576;DHT22;40472;53.486;14.542;2023-08-08T05:30:49;13.20;99.90
54576;DHT22;40472;53.486;14.542;2023-08-08T05:33:15;13.20;99.90
54576;DHT22;40472;53.486;14.542;2023-08-08T05:35:40;13.20;99.90
54576;DHT22;40472;53.486;14.542;2023-08-08T05:38:06;13.30;99.90
54576;DHT22;40472;53.486;14.542;2023-08-08T05:40:34;13.10;99.90
54576;DHT22;40472;53.486;14.542;2023-08-08T05:43:00;13.20;99.90
54576;DHT22;40472;53.486;14.542;2023-08-08T05:45:26;13.30;99.90
54576;DHT22;40472;53.486;14.542;2023-08-08T05:47:51;13.50;99.90
54576;DHT22;40472;53.486;14.542;2023-08-08T05:50:17;13.60;99.90
54576;DHT22;40472;53.486;14.542;2023-08-08T05:52:43;13.80;99.90
54576;DHT22;40472;53.486;14.542;2023-08-08T05:55:08;13.80;99.90
54576;DHT22;40472;53.486;14.542;2023-08-08T05:57:34;13.70;99.90
54576;DHT22;40472;53.486;14.542;2023-08-08T06:00:00;13.70;99.90
54576;DHT22;40472;53.486;14.542;2023-08-08T06:02:26;13.70;99.90
54576;DHT22;40472;53.486;14.542;2023-08-08T06:04:51;13.90;99.90
54576;DHT22;40472;53.486;14.542;2023-08-08T06:07:17;13.80;99.90
54576;DHT22;40472;53.486;14.542;2023-08-08T06:09:42;13.70;99.90
54576;DHT22;40472;53.486;14.542;2023-08-08T06:12:08;13.80;99.90
54576;DHT22;40472;53.486;14.542;2023-08-08T06:14:34;13.80;99.90
54576;DHT22;40472;53.486;14.542;2023-08-08T06:17:00;13.80;99.90
54576;DHT22;40472;53.486;14.542;2023-08-08T06:19:26;14.00;99.90
54576;DHT22;40472;53.486;14.542;2023-08-08T06:21:51;14.20;99.90
54576;DHT22;40472;53.486;14.542;2023-08-08T06:24:17;14.20;99.90
54576;DHT22;40472;53.486;14.542;2023-08-08T06:26:42;14.00;99.90
54576;DHT22;40472;53.486;14.542;2023-08-08T06:29:08;14.00;99.90
54576;DHT22;40472;53.486;14.542;2023-08-08T06:31:34;14.20;99.90
54576;DHT22;40472;53.486;14.542;2023-08-08T06:33:59;14.30;99.90
54576;DHT22;40472;53.486;14.542;2023-08-08T06:36:25;14.30;99.90
54576;DHT22;40472;53.486;14.542;2023-08-08T06:38:50;14.30;99.90
54576;DHT22;40472;53.486;14.542;2023-08-08T06:41:16;14.20;99.90
54576;DHT22;40472;53.486;14.542;2023-08-08T06:43:42;14.30;99.90
54576;DHT22;40472;53.486;14.542;2023-08-08T06:46:07;14.30;99.90
54576;DHT22;40472;53.486;14.542;2023-08-08T06:48:34;14.40;99.90
54576;DHT22;40472;53.486;14.542;2023-08-08T06:51:00;14.20;99.90
54576;DHT22;40472;53.486;14.542;2023-08-08T06:53:25;14.20;99.90
54576;DHT22;40472;53.486;14.542;2023-08-08T06:55:51;14.20;99.90
54576;DHT22;40472;53.486;14.542;2023-08-08T06:58:17;14.20;99.90
54576;DHT22;40472;53.486;14.542;2023-08-08T07:00:43;14.50;99.90
54576;DHT22;40472;53.486;14.542;2023-08-08T07:03:08;14.60;99.90
54576;DHT22;40472;53.486;14.542;2023-08-08T07:05:34;14.90;99.90
54576;DHT22;40472;53.486;14.542;2023-08-08T07:08:00;15.10;99.90
54576;DHT22;40472;53.486;14.542;2023-08-08T07:10:25;15.20;99.90
54576;DHT22;40472;53.486;14.542;2023-08-08T07:12:52;15.20;99.90
54576;DHT22;40472;53.486;14.542;2023-08-08T07:15:18;15.30;99.90
54576;DHT22;40472;53.486;14.542;2023-08-08T07:17:43;15.20;99.90
54576;DHT22;40472;53.486;14.542;2023-08-08T07:20:10;15.30;99.90
54576;DHT22;40472;53.486;14.542;2023-08-08T07:22:39;15.10;99.90
54576;DHT22;40472;53.486;14.542;2023-08-08T07:25:05;14.80;99.90
54576;DHT22;40472;53.486;14.542;2023-08-08T07:27:31;14.80;99.90
54576;DHT22;40472;53.486;14.542;2023-08-08T07:29:57;14.70;99.90
54576;DHT22;40472;53.486;14.542;2023-08-08T07:32:22;14.80;99.90
54576;DHT22;40472;53.486;14.542;2023-08-08T07:34:48;14.80;99.90
54576;DHT22;40472;53.486;14.542;2023-08-08T07:37:14;14.70;99.90
54576;DHT22;40472;53.486;14.542;2023-08-08T07:39:40;14.60;99.90
54576;DHT22;40472;53.486;14.542;2023-08-08T07:42:06;14.50;99.90
54576;DHT22;40472;53.486;14.542;2023-08-08T07:44:32;14.60;99.90
54576;DHT22;40472;53.486;14.542;2023-08-08T07:47:00;14.70;99.90
54576;DHT22;40472;53.486;14.542;2023-08-08T07:49:25;14.80;99.90
54576;DHT22;40472;53.486;14.542;2023-08-08T07:51:51;14.80;99.90
54576;DHT22;40472;53.486;14.542;2023-08-08T07:54:17;14.90;99.90
54576;DHT22;40472;53.486;14.542;2023-08-08T07:56:43;15.00;99.90
54576;DHT22;40472;53.486;14.542;2023-08-08T07:59:08;15.40;99.90
54576;DHT22;40472;53.486;14.542;2023-08-08T08:01:35;15.40;99.90
54576;DHT22;40472;53.486;14.542;2023-08-08T08:04:01;15.10;99.90
54576;DHT22;40472;53.486;14.542;2023-08-08T08:06:28;15.00;99.90
54576;DHT22;40472;53.486;14.542;2023-08-08T08:08:53;14.80;99.90
54576;DHT22;40472;53.486;14.542;2023-08-08T08:11:19;14.70;99.90
54576;DHT22;40472;53.486;14.542;2023-08-08T08:13:45;14.80;99.90
54576;DHT22;40472;53.486;14.542;2023-08-08T08:16:11;15.00;99.90
54576;DHT22;40472;53.486;14.542;2023-08-08T08:18:38;15.00;99.90
54576;DHT22;40472;53.486;14.542;2023-08-08T08:21:04;14.90;99.90
54576;DHT22;40472;53.486;14.542;2023-08-08T08:23:30;15.10;99.90
54576;DHT22;40472;53.486;14.542;2023-08-08T08:25:57;15.20;99.90
54576;DHT22;40472;53.486;14.542;2023-08-08T08:28:23;15.50;99.90
54576;DHT22;40472;53.486;14.542;2023-08-08T08:30:49;15.70;99.90
54576;DHT22;40472;53.486;14.542;2023-08-08T08:33:15;15.80;99.90
54576;DHT22;40472;53.486;14.542;2023-08-08T08:35:41;15.70;99.90
54576;DHT22;40472;53.486;14.542;2023-08-08T08:38:06;15.70;99.90
54576;DHT22;40472;53.486;14.542;2023-08-08T08:40:37;15.80;99.90
54576;DHT22;40472;53.486;14.542;2023-08-08T08:43:10;15.70;99.90
54576;DHT22;40472;53.486;14.542;2023-08-08T08:45:44;15.50;99.90
54576;DHT22;40472;53.486;14.542;2023-08-08T08:48:15;16.00;99.90
54576;DHT22;40472;53.486;14.542;2023-08-08T08:50:42;16.20;99.90
54576;DHT22;40472;53.486;14.542;2023-08-08T08:53:10;16.20;99.90
54576;DHT22;40472;53.486;14.542;2023-08-08T08:55:36;16.10;99.90
54576;DHT22;40472;53.486;14.542;2023-08-08T08:58:03;16.00;99.90
54576;DHT22;40472;53.486;14.542;2023-08-08T09:00:35;16.30;99.90
54576;DHT22;40472;53.486;14.542;2023-08-08T09:03:01;16.20;99.90
54576;DHT22;40472;53.486;14.542;2023-08-08T09:05:27;16.20;99.90
54576;DHT22;40472;53.486;14.542;2023-08-08T09:07:53;16.10;99.90
54576;DHT22;40472;53.486;14.542;2023-08-08T09:10:19;16.10;99.90
54576;DHT22;40472;53.486;14.542;2023-08-08T09:12:45;15.90;99.90
54576;DHT22;40472;53.486;14.542;2023-08-08T09:15:12;16.00;99.90
54576;DHT22;40472;53.486;14.542;2023-08-08T09:17:42;16.00;99.90
54576;DHT22;40472;53.486;14.542;2023-08-08T09:20:09;16.10;99.90
54576;DHT22;40472;53.486;14.542;2023-08-08T09:22:36;16.20;99.90
54576;DHT22;40472;53.486;14.542;2023-08-08T09:25:03;16.50;99.90
54576;DHT22;40472;53.486;14.542;2023-08-08T09:27:29;16.80;99.90
54576;DHT22;40472;53.486;14.542;2023-08-08T09:29:55;17.00;99.90
54576;DHT22;40472;53.486;14.542;2023-08-08T09:32:21;17.00;99.90
54576;DHT22;40472;53.486;14.542;2023-08-08T09:34:46;17.20;99.90
54576;DHT22;40472;53.486;14.542;2023-08-08T09:37:12;17.00;99.90
54576;DHT22;40472;53.486;14.542;2023-08-08T09:39:39;16.90;99.90
54576;DHT22;40472;53.486;14.542;2023-08-08T09:42:07;16.80;99.90
54576;DHT22;40472;53.486;14.542;2023-08-08T09:44:33;16.50;99.90
54576;DHT22;40472;53.486;14.542;2023-08-08T09:47:00;16.10;99.90
54576;DHT22;40472;53.486;14.542;2023-08-08T09:49:27;15.60;99.90
54576;DHT22;40472;53.486;14.542;2023-08-08T09:51:54;15.40;99.90
54576;DHT22;40472;53.486;14.542;2023-08-08T09:54:20;15.40;99.90
54576;DHT22;40472;53.486;14.542;2023-08-08T09:56:48;15.40;99.90
54576;DHT22;40472;53.486;14.542;2023-08-08T09:59:15;15.70;99.90
54576;DHT22;40472;53.486;14.542;2023-08-08T10:01:43;15.90;99.90
54576;DHT22;40472;53.486;14.542;2023-08-08T10:04:11;16.40;99.90
54576;DHT22;40472;53.486;14.542;2023-08-08T10:06:37;16.80;99.90
54576;DHT22;40472;53.486;14.542;2023-08-08T10:09:03;16.90;99.90
54576;DHT22;40472;53.486;14.542;2023-08-08T10:11:30;17.10;99.90
54576;DHT22;40472;53.486;14.542;2023-08-08T10:13:57;17.10;99.90
54576;DHT22;40472;53.486;14.542;2023-08-08T10:16:23;17.30;99.90
54576;DHT22;40472;53.486;14.542;2023-08-08T10:19:00;17.50;99.90
54576;DHT22;40472;53.486;14.542;2023-08-08T10:21:26;17.30;99.90
54576;DHT22;40472;53.486;14.542;2023-08-08T10:24:10;17.10;99.90
54576;DHT22;40472;53.486;14.542;2023-08-08T10:26:53;17.20;99.90
54576;DHT22;40472;53.486;14.542;2023-08-08T10:29:20;17.30;99.90
54576;DHT22;40472;53.486;14.542;2023-08-08T10:32:03;17.20;99.90
54576;DHT22;40472;53.486;14.542;2023-08-08T10:34:40;17.40;99.90
54576;DHT22;40472;53.486;14.542;2023-08-08T10:37:11;17.30;99.90
54576;DHT22;40472;53.486;14.542;2023-08-08T10:39:38;17.50;99.90
54576;DHT22;40472;53.486;14.542;2023-08-08T10:42:18;17.40;99.90
54576;DHT22;40472;53.486;14.542;2023-08-08T10:44:54;17.30;99.90
54576;DHT22;40472;53.486;14.542;2023-08-08T10:47:30;17.30;99.90
54576;DHT22;40472;53.486;14.542;2023-08-08T10:49:57;17.60;99.90
54576;DHT22;40472;53.486;14.542;2023-08-08T10:52:23;17.90;99.90
54576;DHT22;40472;53.486;14.542;2023-08-08T10:54:52;18.10;99.90
54576;DHT22;40472;53.486;14.542;2023-08-08T10:57:23;18.20;99.90
54576;DHT22;40472;53.486;14.542;2023-08-08T10:59:49;18.20;99.90
54576;DHT22;40472;53.486;14.542;2023-08-08T11:02:15;18.20;99.90
54576;DHT22;40472;53.486;14.542;2023-08-08T11:04:41;18.20;99.90
54576;DHT22;40472;53.486;14.542;2023-08-08T11:07:07;18.20;99.90
54576;DHT22;40472;53.486;14.542;2023-08-08T11:09:34;18.50;99.90
54576;DHT22;40472;53.486;14.542;2023-08-08T11:12:00;18.60;99.90
54576;DHT22;40472;53.486;14.542;2023-08-08T11:14:25;18.80;99.90
54576;DHT22;40472;53.486;14.542;2023-08-08T11:16:52;18.60;99.80
54576;DHT22;40472;53.486;14.542;2023-08-08T11:19:18;18.60;99.90
54576;DHT22;40472;53.486;14.542;2023-08-08T11:21:48;18.70;99.70
54576;DHT22;40472;53.486;14.542;2023-08-08T11:24:14;18.70;99.60
54576;DHT22;40472;53.486;14.542;2023-08-08T11:26:42;18.70;98.20
54576;DHT22;40472;53.486;14.542;2023-08-08T11:29:10;19.00;99.10
54576;DHT22;40472;53.486;14.542;2023-08-08T11:31:36;19.10;99.30
54576;DHT22;40472;53.486;14.542;2023-08-08T11:34:04;18.90;96.60
54576;DHT22;40472;53.486;14.542;2023-08-08T11:36:32;18.90;97.60
54576;DHT22;40472;53.486;14.542;2023-08-08T11:39:04;18.90;97.70
54576;DHT22;40472;53.486;14.542;2023-08-08T11:41:34;19.00;99.00
54576;DHT22;40472;53.486;14.542;2023-08-08T11:44:01;19.20;99.60
54576;DHT22;40472;53.486;14.542;2023-08-08T11:46:27;19.30;98.50
54576;DHT22;40472;53.486;14.542;2023-08-08T11:48:53;19.00;98.40
54576;DHT22;40472;53.486;14.542;2023-08-08T11:51:18;19.00;99.10
54576;DHT22;40472;53.486;14.542;2023-08-08T11:53:51;18.90;99.00
54576;DHT22;40472;53.486;14.542;2023-08-08T11:56:19;18.60;99.90
54576;DHT22;40472;53.486;14.542;2023-08-08T11:58:46;18.40;99.90
54576;DHT22;40472;53.486;14.542;2023-08-08T12:01:12;18.40;99.90
54576;DHT22;40472;53.486;14.542;2023-08-08T12:03:40;18.30;99.90
54576;DHT22;40472;53.486;14.542;2023-08-08T12:06:13;18.40;99.90
54576;DHT22;40472;53.486;14.542;2023-08-08T12:08:41;18.20;99.90
54576;DHT22;40472;53.486;14.542;2023-08-08T12:11:08;18.10;99.90
54576;DHT22;40472;53.486;14.542;2023-08-08T12:13:34;18.10;99.90
54576;DHT22;40472;53.486;14.542;2023-08-08T12:16:03;17.90;99.90
54576;DHT22;40472;53.486;14.542;2023-08-08T12:18:30;17.20;99.90
54576;DHT22;40472;53.486;14.542;2023-08-08T12:20:56;16.70;99.90
54576;DHT22;40472;53.486;14.542;2023-08-08T12:23:21;16.40;99.90
54576;DHT22;40472;53.486;14.542;2023-08-08T12:25:47;16.30;99.90
54576;DHT22;40472;53.486;14.542;2023-08-08T12:28:13;16.60;99.90
54576;DHT22;40472;53.486;14.542;2023-08-08T12:30:39;16.80;99.90
54576;DHT22;40472;53.486;14.542;2023-08-08T12:33:04;17.40;99.90
54576;DHT22;40472;53.486;14.542;2023-08-08T12:35:30;17.70;99.90
54576;DHT22;40472;53.486;14.542;2023-08-08T12:37:55;18.20;99.90
54576;DHT22;40472;53.486;14.542;2023-08-08T12:40:21;18.40;99.90
54576;DHT22;40472;53.486;14.542;2023-08-08T12:42:47;18.60;99.90
54576;DHT22;40472;53.486;14.542;2023-08-08T12:45:13;18.80;99.90
54576;DHT22;40472;53.486;14.542;2023-08-08T12:47:39;18.60;99.90
54576;DHT22;40472;53.486;14.542;2023-08-08T12:50:05;18.30;99.90
54576;DHT22;40472;53.486;14.542;2023-08-08T12:52:31;18.10;99.90
54576;DHT22;40472;53.486;14.542;2023-08-08T12:54:57;17.90;99.90
54576;DHT22;40472;53.486;14.542;2023-08-08T12:57:22;17.60;99.90
54576;DHT22;40472;53.486;14.542;2023-08-08T12:59:48;17.20;99.90
54576;DHT22;40472;53.486;14.542;2023-08-08T13:02:14;16.70;99.90
54576;DHT22;40472;53.486;14.542;2023-08-08T13:04:39;15.60;99.90
54576;DHT22;40472;53.486;14.542;2023-08-08T13:07:05;14.40;99.90
54576;DHT22;40472;53.486;14.542;2023-08-08T13:09:31;13.90;99.90
54576;DHT22;40472;53.486;14.542;2023-08-08T13:11:56;13.40;99.90
54576;DHT22;40472;53.486;14.542;2023-08-08T13:14:22;13.20;99.90
54576;DHT22;40472;53.486;14.542;2023-08-08T13:16:47;13.00;99.90
54576;DHT22;40472;53.486;14.542;2023-08-08T13:19:13;13.00;99.90
54576;DHT22;40472;53.486;14.542;2023-08-08T13:21:41;13.00;99.90
54576;DHT22;40472;53.486;14.542;2023-08-08T13:24:07;13.20;99.90
54576;DHT22;40472;53.486;14.542;2023-08-08T13:26:35;13.40;99.90
54576;DHT22;40472;53.486;14.542;2023-08-08T13:29:00;13.70;99.90
54576;DHT22;40472;53.486;14.542;2023-08-08T13:31:26;13.80;99.90
54576;DHT22;40472;53.486;14.542;2023-08-08T13:33:52;13.90;99.90
54576;DHT22;40472;53.486;14.542;2023-08-08T13:36:17;14.00;99.90
54576;DHT22;40472;53.486;14.542;2023-08-08T13:38:43;14.00;99.90
54576;DHT22;40472;53.486;14.542;2023-08-08T13:41:08;14.10;99.90
54576;DHT22;40472;53.486;14.542;2023-08-08T13:43:34;14.00;99.90
54576;DHT22;40472;53.486;14.542;2023-08-08T13:46:00;14.10;99.90
54576;DHT22;40472;53.486;14.542;2023-08-08T13:48:25;14.20;99.90
54576;DHT22;40472;53.486;14.542;2023-08-08T13:50:52;14.40;99.90
54576;DHT22;40472;53.486;14.542;2023-08-08T13:53:18;14.80;99.90
54576;DHT22;40472;53.486;14.542;2023-08-08T13:55:44;15.10;99.90
54576;DHT22;40472;53.486;14.542;2023-08-08T13:58:10;15.20;99.90
54576;DHT22;40472;53.486;14.542;2023-08-08T14:00:35;15.20;99.90
54576;DHT22;40472;53.486;14.542;2023-08-08T14:03:02;15.30;99.90
54576;DHT22;40472;53.486;14.542;2023-08-08T14:05:27;15.40;99.90
54576;DHT22;40472;53.486;14.542;2023-08-08T14:07:54;15.40;99.90
54576;DHT22;40472;53.486;14.542;2023-08-08T14:10:20;15.30;99.90
54576;DHT22;40472;53.486;14.542;2023-08-08T14:12:45;15.30;99.90
54576;DHT22;40472;53.486;14.542;2023-08-08T14:15:11;15.50;99.90
54576;DHT22;40472;53.486;14.542;2023-08-08T14:17:37;15.60;99.90
54576;DHT22;40472;53.486;14.542;2023-08-08T14:20:03;15.80;99.90
54576;DHT22;40472;53.486;14.542;2023-08-08T14:22:30;15.80;99.90
54576;DHT22;40472;53.486;14.542;2023-08-08T14:24:56;15.80;99.90
54576;DHT22;40472;53.486;14.542;2023-08-08T14:27:23;15.90;99.90
54576;DHT22;40472;53.486;14.542;2023-08-08T14:29:48;15.80;99.90
54576;DHT22;40472;53.486;14.542;2023-08-08T14:32:14;15.80;99.90
54576;DHT22;40472;53.486;14.542;2023-08-08T14:34:40;15.70;99.90
54576;DHT22;40472;53.486;14.542;2023-08-08T14:37:06;15.70;99.90
54576;DHT22;40472;53.486;14.542;2023-08-08T14:39:32;15.70;99.90
54576;DHT22;40472;53.486;14.542;2023-08-08T14:41:58;15.60;99.90
54576;DHT22;40472;53.486;14.542;2023-08-08T14:44:24;15.50;99.90
54576;DHT22;40472;53.486;14.542;2023-08-08T14:46:49;15.30;99.90
54576;DHT22;40472;53.486;14.542;2023-08-08T14:49:21;15.20;99.90
54576;DHT22;40472;53.486;14.542;2023-08-08T14:51:48;15.10;99.90
54576;DHT22;40472;53.486;14.542;2023-08-08T14:54:13;15.20;99.90
54576;DHT22;40472;53.486;14.542;2023-08-08T14:56:39;15.30;99.90
54576;DHT22;40472;53.486;14.542;2023-08-08T14:59:05;15.40;99.90
54576;DHT22;40472;53.486;14.542;2023-08-08T15:01:30;15.40;99.90
54576;DHT22;40472;53.486;14.542;2023-08-08T15:03:57;15.50;99.90
54576;DHT22;40472;53.486;14.542;2023-08-08T15:06:23;15.40;99.90
54576;DHT22;40472;53.486;14.542;2023-08-08T15:08:49;15.40;99.90
54576;DHT22;40472;53.486;14.542;2023-08-08T15:11:16;15.40;99.90
54576;DHT22;40472;53.486;14.542;2023-08-08T15:13:42;15.50;99.90